sensor_id;sensor_type;location;lat;lon;timestamp;P1;P4;P2;P0;N10;N4;N25;N1;N05;TS
79466;SPS30;68933;49.726;9.226;2023-07-20T00:01:18;4.8;;4.8;4.6;;;;;;
79466;SPS30;68933;49.726;9.226;2023-07-20T00:03:31;4.8;;4.8;4.6;;;;;;
79466;SPS30;68933;49.726;9.226;2023-07-20T00:05:44;4.6;;4.6;4.4;;;;;;
79466;SPS30;68933;49.726;9.226;2023-07-20T00:07:57;4.6;;4.6;4.4;;;;;;
79466;SPS30;68933;49.726;9.226;2023-07-20T00:10:10;5.3;;5.3;5;;;;;;
79466;SPS30;68933;49.726;9.226;2023-07-20T00:12:23;5.3;;5.3;5;;;;;;
79466;SPS30;68933;49.726;9.226;2023-07-20T00:14:36;5.8;;5.8;5.5;;;;;;
79466;SPS30;68933;49.726;9.226;2023-07-20T00:16:50;5.8;;5.8;5.5;;;;;;
79466;SPS30;68933;49.726;9.226;2023-07-20T00:19:02;5.5;;5.5;5.3;;;;;;
79466;SPS30;68933;49.726;9.226;2023-07-20T00:21:15;5.5;;5.5;5.3;;;;;;
79466;SPS30;68933;49.726;9.226;2023-07-20T00:23:28;5.5;;5.5;5.3;;;;;;
79466;SPS30;68933;49.726;9.226;2023-07-20T00:25:41;5.5;;5.5;5.3;;;;;;
79466;SPS30;68933;49.726;9.226;2023-07-20T00:27:54;5.5;;5.5;5.3;;;;;;
79466;SPS30;68933;49.726;9.226;2023-07-20T00:30:08;5.4;;5.4;5.1;;;;;;
79466;SPS30;68933;49.726;9.226;2023-07-20T00:32:20;5.4;;5.4;5.1;;;;;;
79466;SPS30;68933;49.726;9.226;2023-07-20T00:34:33;3.4;;3.4;3.3;;;;;;
79466;SPS30;68933;49.726;9.226;2023-07-20T00:36:46;3.4;;3.4;3.3;;;;;;
79466;SPS30;68933;49.726;9.226;2023-07-20T00:38:59;4.3;;4.3;4.1;;;;;;
79466;SPS30;68933;49.726;9.226;2023-07-20T00:41:12;4.3;;4.3;4.1;;;;;;
79466;SPS30;68933;49.726;9.226;2023-07-20T00:43:25;4.3;;4.3;4.1;;;;;;
79466;SPS30;68933;49.726;9.226;2023-07-20T00:45:38;5.4;;5.4;5.1;;;;;;
79466;SPS30;68933;49.726;9.226;2023-07-20T00:47:51;5.4;;5.4;5.1;;;;;;
79466;SPS30;68933;49.726;9.226;2023-07-20T00:50:05;5.4;;5.4;5.1;;;;;;
79466;SPS30;68933;49.726;9.226;2023-07-20T00:52:17;5.4;;5.4;5.1;;;;;;
79466;SPS30;68933;49.726;9.226;2023-07-20T00:54:30;4.3;;4.3;4.1;;;;;;
79466;SPS30;68933;49.726;9.226;2023-07-20T00:56:43;4.3;;4.3;4.1;;;;;;
79466;SPS30;68933;49.726;9.226;2023-07-20T00:58:56;4;;4;3.9;;;;;;
79466;SPS30;68933;49.726;9.226;2023-07-20T01:01:09;4;;4;3.9;;;;;;
79466;SPS30;68933;49.726;9.226;2023-07-20T01:03:22;5.9;;5.9;5.6;;;;;;
79466;SPS30;68933;49.726;9.226;2023-07-20T01:05:38;5.9;;5.9;5.6;;;;;;
79466;SPS30;68933;49.726;9.226;2023-07-20T01:07:51;5.3;;5.3;5;;;;;;
79466;SPS30;68933;49.726;9.226;2023-07-20T01:10:02;5.3;;5.3;5;;;;;;
79466;SPS30;68933;49.726;9.226;2023-07-20T01:12:18;5.3;;5.3;5;;;;;;
79466;SPS30;68933;49.726;9.226;2023-07-20T01:14:27;4.4;;4.4;4.2;;;;;;
79466;SPS30;68933;49.726;9.226;2023-07-20T01:16:40;4.4;;4.4;4.2;;;;;;
79466;SPS30;68933;49.726;9.226;2023-07-20T01:18:53;4.3;;4.3;4.1;;;;;;
79466;SPS30;68933;49.726;9.226;2023-07-20T01:21:08;4.3;;4.3;4.1;;;;;;
79466;SPS30;68933;49.726;9.226;2023-07-20T01:23:22;4.2;;4.2;4;;;;;;
79466;SPS30;68933;49.726;9.226;2023-07-20T01:25:34;4.2;;4.2;4;;;;;;
79466;SPS30;68933;49.726;9.226;2023-07-20T01:27:59;4.1;;4.1;3.9;;;;;;
79466;SPS30;68933;49.726;9.226;2023-07-20T01:30:03;4.1;;4.1;3.9;;;;;;
79466;SPS30;68933;49.726;9.226;2023-07-20T01:32:11;4.1;;4.1;3.9;;;;;;
79466;SPS30;68933;49.726;9.226;2023-07-20T01:34:24;4.3;;4.3;4.1;;;;;;
79466;SPS30;68933;49.726;9.226;2023-07-20T01:36:37;3.8;;3.8;3.6;;;;;;
79466;SPS30;68933;49.726;9.226;2023-07-20T01:38:51;3.5;;3.5;3.3;;;;;;
79466;SPS30;68933;49.726;9.226;2023-07-20T01:41:03;3.5;;3.5;3.3;;;;;;
79466;SPS30;68933;49.726;9.226;2023-07-20T01:43:16;3.5;;3.5;3.3;;;;;;
79466;SPS30;68933;49.726;9.226;2023-07-20T01:45:29;3;;3;2.9;;;;;;
79466;SPS30;68933;49.726;9.226;2023-07-20T01:47:43;3;;3;2.9;;;;;;
79466;SPS30;68933;49.726;9.226;2023-07-20T01:49:55;4.2;;4.2;4;;;;;;
79466;SPS30;68933;49.726;9.226;2023-07-20T01:52:08;4.2;;4.2;4;;;;;;
79466;SPS30;68933;49.726;9.226;2023-07-20T01:54:21;4.2;;4.2;4;;;;;;
79466;SPS30;68933;49.726;9.226;2023-07-20T01:56:34;4.7;;4.7;4.5;;;;;;
79466;SPS30;68933;49.726;9.226;2023-07-20T01:58:47;4.7;;4.7;4.5;;;;;;
79466;SPS30;68933;49.726;9.226;2023-07-20T02:01:00;5.7;;5.7;5.4;;;;;;
79466;SPS30;68933;49.726;9.226;2023-07-20T02:03:13;5.7;;5.7;5.4;;;;;;
79466;SPS30;68933;49.726;9.226;2023-07-20T02:05:26;5.7;;5.7;5.4;;;;;;
79466;SPS30;68933;49.726;9.226;2023-07-20T02:07:39;5.6;;5.6;5.4;;;;;;
79466;SPS30;68933;49.726;9.226;2023-07-20T02:09:52;5.6;;5.6;5.4;;;;;;
79466;SPS30;68933;49.726;9.226;2023-07-20T02:12:05;6.4;;6.4;6.1;;;;;;
79466;SPS30;68933;49.726;9.226;2023-07-20T02:14:18;6.4;;6.4;6.1;;;;;;
79466;SPS30;68933;49.726;9.226;2023-07-20T02:16:31;6;;6;5.8;;;;;;
79466;SPS30;68933;49.726;9.226;2023-07-20T02:18:44;6;;6;5.8;;;;;;
79466;SPS30;68933;49.726;9.226;2023-07-20T02:20:57;6;;6;5.8;;;;;;
79466;SPS30;68933;49.726;9.226;2023-07-20T02:23:10;4.3;;4.3;4.1;;;;;;
79466;SPS30;68933;49.726;9.226;2023-07-20T02:25:23;4.3;;4.3;4.1;;;;;;
79466;SPS30;68933;49.726;9.226;2023-07-20T02:27:37;6.7;;6.7;6.4;;;;;;
79466;SPS30;68933;49.726;9.226;2023-07-20T02:29:49;6.7;;6.7;6.4;;;;;;
79466;SPS30;68933;49.726;9.226;2023-07-20T02:32:03;6.6;;6.6;6.3;;;;;;
79466;SPS30;68933;49.726;9.226;2023-07-20T02:34:15;6.6;;6.6;6.3;;;;;;
79466;SPS30;68933;49.726;9.226;2023-07-20T02:36:28;6.6;;6.6;6.3;;;;;;
79466;SPS30;68933;49.726;9.226;2023-07-20T02:38:41;4.3;;4.3;4.1;;;;;;
79466;SPS30;68933;49.726;9.226;2023-07-20T02:40:54;4.3;;4.3;4.1;;;;;;
79466;SPS30;68933;49.726;9.226;2023-07-20T02:43:07;3.8;;3.8;3.6;;;;;;
79466;SPS30;68933;49.726;9.226;2023-07-20T02:45:20;3.8;;3.8;3.6;;;;;;
79466;SPS30;68933;49.726;9.226;2023-07-20T02:47:33;3.5;;3.5;3.3;;;;;;
79466;SPS30;68933;49.726;9.226;2023-07-20T02:49:46;3.5;;3.5;3.3;;;;;;
79466;SPS30;68933;49.726;9.226;2023-07-20T02:51:59;3.5;;3.5;3.3;;;;;;
79466;SPS30;68933;49.726;9.226;2023-07-20T02:54:12;3.3;;3.3;3.2;;;;;;
79466;SPS30;68933;49.726;9.226;2023-07-20T02:56:25;3.3;;3.3;3.2;;;;;;
79466;SPS30;68933;49.726;9.226;2023-07-20T02:58:40;3.4;;3.4;3.3;;;;;;
79466;SPS30;68933;49.726;9.226;2023-07-20T03:00:51;3.4;;3.4;3.3;;;;;;
79466;SPS30;68933;49.726;9.226;2023-07-20T03:03:04;5.8;;5.8;5.5;;;;;;
79466;SPS30;68933;49.726;9.226;2023-07-20T03:05:17;5.8;;5.8;5.5;;;;;;
79466;SPS30;68933;49.726;9.226;2023-07-20T03:07:30;6;;6;5.7;;;;;;
79466;SPS30;68933;49.726;9.226;2023-07-20T03:09:43;6;;6;5.7;;;;;;
79466;SPS30;68933;49.726;9.226;2023-07-20T03:11:56;6;;6;5.7;;;;;;
79466;SPS30;68933;49.726;9.226;2023-07-20T03:14:09;5.6;;5.6;5.4;;;;;;
79466;SPS30;68933;49.726;9.226;2023-07-20T03:16:23;5.6;;5.6;5.4;;;;;;
79466;SPS30;68933;49.726;9.226;2023-07-20T03:18:35;6.7;;6.7;6.4;;;;;;
79466;SPS30;68933;49.726;9.226;2023-07-20T03:20:48;6.7;;6.7;6.4;;;;;;
79466;SPS30;68933;49.726;9.226;2023-07-20T03:23:01;6.6;;6.6;6.3;;;;;;
79466;SPS30;68933;49.726;9.226;2023-07-20T03:25:14;6.6;;6.6;6.3;;;;;;
79466;SPS30;68933;49.726;9.226;2023-07-20T03:27:27;5.7;;5.7;5.4;;;;;;
79466;SPS30;68933;49.726;9.226;2023-07-20T03:29:40;5.7;;5.7;5.4;;;;;;
79466;SPS30;68933;49.726;9.226;2023-07-20T03:31:53;5.7;;5.7;5.4;;;;;;
79466;SPS30;68933;49.726;9.226;2023-07-20T03:34:06;6.1;;6.1;5.8;;;;;;
79466;SPS30;68933;49.726;9.226;2023-07-20T03:36:19;6.1;;6.1;5.8;;;;;;
79466;SPS30;68933;49.726;9.226;2023-07-20T03:38:32;8.2;;8.2;7.8;;;;;;
79466;SPS30;68933;49.726;9.226;2023-07-20T03:40:49;8.2;;8.2;7.8;;;;;;
79466;SPS30;68933;49.726;9.226;2023-07-20T03:42:58;8.7;;8.7;8.3;;;;;;
79466;SPS30;68933;49.726;9.226;2023-07-20T03:45:11;8.7;;8.7;8.3;;;;;;
79466;SPS30;68933;49.726;9.226;2023-07-20T03:47:24;8.9;;8.9;8.5;;;;;;
79466;SPS30;68933;49.726;9.226;2023-07-20T03:49:37;8.9;;8.9;8.5;;;;;;
79466;SPS30;68933;49.726;9.226;2023-07-20T03:51:50;8.9;;8.9;8.5;;;;;;
79466;SPS30;68933;49.726;9.226;2023-07-20T03:54:03;8.2;;8.2;7.8;;;;;;
79466;SPS30;68933;49.726;9.226;2023-07-20T03:56:16;8.2;;8.2;7.8;;;;;;
79466;SPS30;68933;49.726;9.226;2023-07-20T03:58:29;8;;8;7.7;;;;;;
79466;SPS30;68933;49.726;9.226;2023-07-20T04:00:44;8;;8;7.7;;;;;;
79466;SPS30;68933;49.726;9.226;2023-07-20T04:02:55;6.5;;6.5;6.2;;;;;;
79466;SPS30;68933;49.726;9.226;2023-07-20T04:05:08;6.5;;6.5;6.2;;;;;;
79466;SPS30;68933;49.726;9.226;2023-07-20T04:07:21;6.2;;6.2;5.9;;;;;;
79466;SPS30;68933;49.726;9.226;2023-07-20T04:09:34;6.2;;6.2;5.9;;;;;;
79466;SPS30;68933;49.726;9.226;2023-07-20T04:11:47;5.7;;5.7;5.4;;;;;;
79466;SPS30;68933;49.726;9.226;2023-07-20T04:14:00;5.7;;5.7;5.4;;;;;;
79466;SPS30;68933;49.726;9.226;2023-07-20T04:16:13;5.3;;5.3;5.1;;;;;;
79466;SPS30;68933;49.726;9.226;2023-07-20T04:18:26;5.3;;5.3;5.1;;;;;;
79466;SPS30;68933;49.726;9.226;2023-07-20T04:20:39;5.3;;5.3;5.1;;;;;;
79466;SPS30;68933;49.726;9.226;2023-07-20T04:22:52;3.9;;3.9;3.8;;;;;;
79466;SPS30;68933;49.726;9.226;2023-07-20T04:25:06;3.9;;3.9;3.8;;;;;;
79466;SPS30;68933;49.726;9.226;2023-07-20T04:27:18;3.9;;3.9;3.8;;;;;;
79466;SPS30;68933;49.726;9.226;2023-07-20T04:29:31;5.7;;5.7;5.4;;;;;;
79466;SPS30;68933;49.726;9.226;2023-07-20T04:31:44;5.7;;5.7;5.4;;;;;;
79466;SPS30;68933;49.726;9.226;2023-07-20T04:33:57;4.8;;4.8;4.5;;;;;;
79466;SPS30;68933;49.726;9.226;2023-07-20T04:36:10;4.8;;4.8;4.5;;;;;;
79466;SPS30;68933;49.726;9.226;2023-07-20T04:38:23;5.6;;5.6;5.3;;;;;;
79466;SPS30;68933;49.726;9.226;2023-07-20T04:40:36;5.6;;5.6;5.3;;;;;;
79466;SPS30;68933;49.726;9.226;2023-07-20T04:42:49;5.6;;5.6;5.3;;;;;;
79466;SPS30;68933;49.726;9.226;2023-07-20T04:45:03;5.5;;5.5;5.3;;;;;;
79466;SPS30;68933;49.726;9.226;2023-07-20T04:47:15;5.5;;5.5;5.3;;;;;;
79466;SPS30;68933;49.726;9.226;2023-07-20T04:49:28;5.2;;5.2;5;;;;;;
79466;SPS30;68933;49.726;9.226;2023-07-20T04:51:41;5.2;;5.2;5;;;;;;
79466;SPS30;68933;49.726;9.226;2023-07-20T04:53:54;5.2;;5.2;5;;;;;;
79466;SPS30;68933;49.726;9.226;2023-07-20T04:56:07;6.5;;6.5;6.2;;;;;;
79466;SPS30;68933;49.726;9.226;2023-07-20T04:58:21;6.5;;6.5;6.2;;;;;;
79466;SPS30;68933;49.726;9.226;2023-07-20T05:00:34;6.1;;6.1;5.8;;;;;;
79466;SPS30;68933;49.726;9.226;2023-07-20T05:02:46;6.1;;6.1;5.8;;;;;;
79466;SPS30;68933;49.726;9.226;2023-07-20T05:04:59;4.6;;4.6;4.4;;;;;;
79466;SPS30;68933;49.726;9.226;2023-07-20T05:07:12;4.6;;4.6;4.4;;;;;;
79466;SPS30;68933;49.726;9.226;2023-07-20T05:09:25;4.6;;4.6;4.4;;;;;;
79466;SPS30;68933;49.726;9.226;2023-07-20T05:11:39;8.8;;8.8;8.4;;;;;;
79466;SPS30;68933;49.726;9.226;2023-07-20T05:13:51;8.8;;8.8;8.4;;;;;;
79466;SPS30;68933;49.726;9.226;2023-07-20T05:16:04;7.5;;7.5;7.1;;;;;;
79466;SPS30;68933;49.726;9.226;2023-07-20T05:18:17;7.5;;7.5;7.1;;;;;;
79466;SPS30;68933;49.726;9.226;2023-07-20T05:20:30;5.2;;5.2;5;;;;;;
79466;SPS30;68933;49.726;9.226;2023-07-20T05:22:43;5.2;;5.2;5;;;;;;
79466;SPS30;68933;49.726;9.226;2023-07-20T05:24:56;5.2;;5.2;5;;;;;;
79466;SPS30;68933;49.726;9.226;2023-07-20T05:27:09;10.7;;10.4;9.6;;;;;;
79466;SPS30;68933;49.726;9.226;2023-07-20T05:29:22;10.7;;10.4;9.6;;;;;;
79466;SPS30;68933;49.726;9.226;2023-07-20T05:31:35;5.2;;5.2;5;;;;;;
79466;SPS30;68933;49.726;9.226;2023-07-20T05:33:48;5.2;;5.2;5;;;;;;
79466;SPS30;68933;49.726;9.226;2023-07-20T05:36:01;5.8;;5.8;5.6;;;;;;
79466;SPS30;68933;49.726;9.226;2023-07-20T05:38:14;5.8;;5.8;5.6;;;;;;
79466;SPS30;68933;49.726;9.226;2023-07-20T05:40:27;5.8;;5.8;5.6;;;;;;
79466;SPS30;68933;49.726;9.226;2023-07-20T05:42:40;4.8;;4.8;4.6;;;;;;
79466;SPS30;68933;49.726;9.226;2023-07-20T05:44:53;4.8;;4.8;4.6;;;;;;
79466;SPS30;68933;49.726;9.226;2023-07-20T05:47:07;4.8;;4.8;4.6;;;;;;
79466;SPS30;68933;49.726;9.226;2023-07-20T05:49:19;4.8;;4.8;4.6;;;;;;
79466;SPS30;68933;49.726;9.226;2023-07-20T05:51:32;6.3;;6.3;6;;;;;;
79466;SPS30;68933;49.726;9.226;2023-07-20T05:53:45;6.3;;6.3;6;;;;;;
79466;SPS30;68933;49.726;9.226;2023-07-20T05:55:58;6.3;;6.3;6;;;;;;
79466;SPS30;68933;49.726;9.226;2023-07-20T05:58:11;6.3;;6.3;6;;;;;;
79466;SPS30;68933;49.726;9.226;2023-07-20T06:00:24;6.3;;6.3;6;;;;;;
79466;SPS30;68933;49.726;9.226;2023-07-20T06:02:37;5.6;;5.6;5.3;;;;;;
79466;SPS30;68933;49.726;9.226;2023-07-20T06:04:50;5.6;;5.6;5.3;;;;;;
79466;SPS30;68933;49.726;9.226;2023-07-20T06:07:04;4.8;;4.8;4.6;;;;;;
79466;SPS30;68933;49.726;9.226;2023-07-20T06:09:16;4.8;;4.8;4.6;;;;;;
79466;SPS30;68933;49.726;9.226;2023-07-20T06:11:29;4.8;;4.8;4.6;;;;;;
79466;SPS30;68933;49.726;9.226;2023-07-20T06:13:42;5.1;;5.1;4.8;;;;;;
79466;SPS30;68933;49.726;9.226;2023-07-20T06:15:55;5.1;;5.1;4.8;;;;;;
79466;SPS30;68933;49.726;9.226;2023-07-20T06:18:08;4.7;;4.7;4.5;;;;;;
79466;SPS30;68933;49.726;9.226;2023-07-20T06:20:22;4.7;;4.7;4.5;;;;;;
79466;SPS30;68933;49.726;9.226;2023-07-20T06:22:34;4.2;;4.2;4;;;;;;
79466;SPS30;68933;49.726;9.226;2023-07-20T06:24:47;4.2;;4.2;4;;;;;;
79466;SPS30;68933;49.726;9.226;2023-07-20T06:27:00;4.2;;4.2;4;;;;;;
79466;SPS30;68933;49.726;9.226;2023-07-20T06:29:13;3.8;;3.8;3.6;;;;;;
79466;SPS30;68933;49.726;9.226;2023-07-20T06:31:26;3.8;;3.8;3.6;;;;;;
79466;SPS30;68933;49.726;9.226;2023-07-20T06:33:39;3.3;;3.3;3.2;;;;;;
79466;SPS30;68933;49.726;9.226;2023-07-20T06:35:52;3.3;;3.3;3.2;;;;;;
79466;SPS30;68933;49.726;9.226;2023-07-20T06:38:05;3.3;;3.3;3.2;;;;;;
79466;SPS30;68933;49.726;9.226;2023-07-20T06:40:18;3.3;;3.3;3.2;;;;;;
79466;SPS30;68933;49.726;9.226;2023-07-20T06:42:31;3.3;;3.3;3.1;;;;;;
79466;SPS30;68933;49.726;9.226;2023-07-20T06:44:44;3.3;;3.3;3.1;;;;;;
79466;SPS30;68933;49.726;9.226;2023-07-20T06:46:57;3;;3;2.8;;;;;;
79466;SPS30;68933;49.726;9.226;2023-07-20T06:49:15;3;;3;2.8;;;;;;
79466;SPS30;68933;49.726;9.226;2023-07-20T06:51:23;4.3;;4.3;4.1;;;;;;
79466;SPS30;68933;49.726;9.226;2023-07-20T06:53:36;4.3;;4.3;4.1;;;;;;
79466;SPS30;68933;49.726;9.226;2023-07-20T06:55:49;4.3;;4.3;4.1;;;;;;
79466;SPS30;68933;49.726;9.226;2023-07-20T06:58:02;3.2;;3.2;3.1;;;;;;
79466;SPS30;68933;49.726;9.226;2023-07-20T07:00:15;3.2;;3.2;3.1;;;;;;
79466;SPS30;68933;49.726;9.226;2023-07-20T07:02:28;2.7;;2.7;2.6;;;;;;
79466;SPS30;68933;49.726;9.226;2023-07-20T07:04:41;2.7;;2.7;2.6;;;;;;
79466;SPS30;68933;49.726;9.226;2023-07-20T07:06:54;3.3;;3.3;3.1;;;;;;
79466;SPS30;68933;49.726;9.226;2023-07-20T07:09:07;3.3;;3.3;3.1;;;;;;
79466;SPS30;68933;49.726;9.226;2023-07-20T07:11:21;3.3;;3.3;3.1;;;;;;
79466;SPS30;68933;49.726;9.226;2023-07-20T07:13:33;3.3;;3.3;3.1;;;;;;
79466;SPS30;68933;49.726;9.226;2023-07-20T07:15:46;3.6;;3.6;3.4;;;;;;
79466;SPS30;68933;49.726;9.226;2023-07-20T07:17:59;3.6;;3.6;3.4;;;;;;
79466;SPS30;68933;49.726;9.226;2023-07-20T07:20:12;3.8;;3.8;3.6;;;;;;
79466;SPS30;68933;49.726;9.226;2023-07-20T07:22:25;3.8;;3.8;3.6;;;;;;
79466;SPS30;68933;49.726;9.226;2023-07-20T07:24:38;3.8;;3.8;3.6;;;;;;
79466;SPS30;68933;49.726;9.226;2023-07-20T07:26:51;2.9;;2.9;2.7;;;;;;
79466;SPS30;68933;49.726;9.226;2023-07-20T07:29:04;2.9;;2.9;2.7;;;;;;
79466;SPS30;68933;49.726;9.226;2023-07-20T07:31:18;3.1;;3.1;2.9;;;;;;
79466;SPS30;68933;49.726;9.226;2023-07-20T07:33:30;3.1;;3.1;2.9;;;;;;
79466;SPS30;68933;49.726;9.226;2023-07-20T07:35:44;3.1;;3.1;2.9;;;;;;
79466;SPS30;68933;49.726;9.226;2023-07-20T07:37:56;2.3;;2.3;2.2;;;;;;
79466;SPS30;68933;49.726;9.226;2023-07-20T07:40:10;2.3;;2.3;2.2;;;;;;
79466;SPS30;68933;49.726;9.226;2023-07-20T07:42:22;2.2;;2.2;2.1;;;;;;
79466;SPS30;68933;49.726;9.226;2023-07-20T07:44:35;2.2;;2.2;2.1;;;;;;
79466;SPS30;68933;49.726;9.226;2023-07-20T07:46:48;2.2;;2.2;2.1;;;;;;
79466;SPS30;68933;49.726;9.226;2023-07-20T07:49:01;2.3;;2.3;2.2;;;;;;
79466;SPS30;68933;49.726;9.226;2023-07-20T07:51:15;2.3;;2.3;2.2;;;;;;
79466;SPS30;68933;49.726;9.226;2023-07-20T07:53:27;2.3;;2.3;2.2;;;;;;
79466;SPS30;68933;49.726;9.226;2023-07-20T07:55:40;2.3;;2.3;2.2;;;;;;
79466;SPS30;68933;49.726;9.226;2023-07-20T07:57:53;2.3;;2.3;2.2;;;;;;
79466;SPS30;68933;49.726;9.226;2023-07-20T08:00:07;2.5;;2.5;2.4;;;;;;
79466;SPS30;68933;49.726;9.226;2023-07-20T08:02:19;2.5;;2.5;2.4;;;;;;
79466;SPS30;68933;49.726;9.226;2023-07-20T08:04:32;2.6;;2.6;2.5;;;;;;
79466;SPS30;68933;49.726;9.226;2023-07-20T08:06:45;2.6;;2.6;2.5;;;;;;
79466;SPS30;68933;49.726;9.226;2023-07-20T08:08:58;2.6;;2.6;2.5;;;;;;
79466;SPS30;68933;49.726;9.226;2023-07-20T08:11:11;2.7;;2.7;2.5;;;;;;
79466;SPS30;68933;49.726;9.226;2023-07-20T08:13:24;2.7;;2.7;2.5;;;;;;
79466;SPS30;68933;49.726;9.226;2023-07-20T08:15:38;2.6;;2.6;2.5;;;;;;
79466;SPS30;68933;49.726;9.226;2023-07-20T08:17:50;2.6;;2.6;2.5;;;;;;
79466;SPS30;68933;49.726;9.226;2023-07-20T08:20:04;2.6;;2.6;2.4;;;;;;
79466;SPS30;68933;49.726;9.226;2023-07-20T08:22:16;2.6;;2.6;2.4;;;;;;
79466;SPS30;68933;49.726;9.226;2023-07-20T08:24:29;2.6;;2.6;2.4;;;;;;
79466;SPS30;68933;49.726;9.226;2023-07-20T08:26:42;2.5;;2.5;2.4;;;;;;
79466;SPS30;68933;49.726;9.226;2023-07-20T08:28:55;2.5;;2.5;2.4;;;;;;
79466;SPS30;68933;49.726;9.226;2023-07-20T08:31:08;2.5;;2.5;2.4;;;;;;
79466;SPS30;68933;49.726;9.226;2023-07-20T08:33:21;2.5;;2.5;2.4;;;;;;
79466;SPS30;68933;49.726;9.226;2023-07-20T08:35:34;2.5;;2.5;2.4;;;;;;
79466;SPS30;68933;49.726;9.226;2023-07-20T08:37:47;2.5;;2.5;2.3;;;;;;
79466;SPS30;68933;49.726;9.226;2023-07-20T08:40:00;2.5;;2.5;2.3;;;;;;
79466;SPS30;68933;49.726;9.226;2023-07-20T08:42:13;3.5;;3.5;3.4;;;;;;
79466;SPS30;68933;49.726;9.226;2023-07-20T08:44:26;3.5;;3.5;3.4;;;;;;
79466;SPS30;68933;49.726;9.226;2023-07-20T08:46:39;2.2;;2.2;2.1;;;;;;
79466;SPS30;68933;49.726;9.226;2023-07-20T08:48:52;2.2;;2.2;2.1;;;;;;
79466;SPS30;68933;49.726;9.226;2023-07-20T08:51:06;2.2;;2.2;2.1;;;;;;
79466;SPS30;68933;49.726;9.226;2023-07-20T08:53:19;1.7;;1.7;1.6;;;;;;
79466;SPS30;68933;49.726;9.226;2023-07-20T08:55:31;1.7;;1.7;1.6;;;;;;
79466;SPS30;68933;49.726;9.226;2023-07-20T08:57:44;2.6;;2.6;2.5;;;;;;
79466;SPS30;68933;49.726;9.226;2023-07-20T08:59:57;2.6;;2.6;2.5;;;;;;
79466;SPS30;68933;49.726;9.226;2023-07-20T09:02:11;1.8;;1.8;1.7;;;;;;
79466;SPS30;68933;49.726;9.226;2023-07-20T09:04:23;1.8;;1.8;1.7;;;;;;
79466;SPS30;68933;49.726;9.226;2023-07-20T09:06:36;1.8;;1.8;1.7;;;;;;
79466;SPS30;68933;49.726;9.226;2023-07-20T09:08:49;2.7;;2.7;2.5;;;;;;
79466;SPS30;68933;49.726;9.226;2023-07-20T09:11:02;2.7;;2.7;2.5;;;;;;
79466;SPS30;68933;49.726;9.226;2023-07-20T09:13:15;1.7;;1.7;1.6;;;;;;
79466;SPS30;68933;49.726;9.226;2023-07-20T09:15:29;1.7;;1.7;1.6;;;;;;
79466;SPS30;68933;49.726;9.226;2023-07-20T09:17:45;2.7;;2.7;2.6;;;;;;
79466;SPS30;68933;49.726;9.226;2023-07-20T09:19:54;2.7;;2.7;2.6;;;;;;
79466;SPS30;68933;49.726;9.226;2023-07-20T09:22:07;2.5;;2.5;2.3;;;;;;
79466;SPS30;68933;49.726;9.226;2023-07-20T09:24:20;2.5;;2.5;2.3;;;;;;
79466;SPS30;68933;49.726;9.226;2023-07-20T09:26:35;2.5;;2.5;2.3;;;;;;
79466;SPS30;68933;49.726;9.226;2023-07-20T09:28:47;2.2;;2.2;2.1;;;;;;
79466;SPS30;68933;49.726;9.226;2023-07-20T09:31:00;2.2;;2.2;2.1;;;;;;
79466;SPS30;68933;49.726;9.226;2023-07-20T09:33:18;1.8;;1.8;1.7;;;;;;
79466;SPS30;68933;49.726;9.226;2023-07-20T09:35:26;1.8;;1.8;1.7;;;;;;
79466;SPS30;68933;49.726;9.226;2023-07-20T09:37:38;1.8;;1.8;1.8;;;;;;
79466;SPS30;68933;49.726;9.226;2023-07-20T09:39:52;1.8;;1.8;1.8;;;;;;
79466;SPS30;68933;49.726;9.226;2023-07-20T09:42:05;1.8;;1.8;1.8;;;;;;
79466;SPS30;68933;49.726;9.226;2023-07-20T09:44:17;2.2;;2.2;2.1;;;;;;
79466;SPS30;68933;49.726;9.226;2023-07-20T09:46:40;2.2;;2.2;2.1;;;;;;
79466;SPS30;68933;49.726;9.226;2023-07-20T09:48:48;1.9;;1.9;1.8;;;;;;
79466;SPS30;68933;49.726;9.226;2023-07-20T09:50:56;1.9;;1.9;1.8;;;;;;
79466;SPS30;68933;49.726;9.226;2023-07-20T09:53:11;1.9;;1.9;1.8;;;;;;
79466;SPS30;68933;49.726;9.226;2023-07-20T09:55:22;2;;2;1.9;;;;;;
79466;SPS30;68933;49.726;9.226;2023-07-20T09:57:35;2;;2;1.9;;;;;;
79466;SPS30;68933;49.726;9.226;2023-07-20T09:59:48;1.9;;1.9;1.8;;;;;;
79466;SPS30;68933;49.726;9.226;2023-07-20T10:02:02;1.9;;1.9;1.8;;;;;;
79466;SPS30;68933;49.726;9.226;2023-07-20T10:04:14;2.1;;2.1;2;;;;;;
79466;SPS30;68933;49.726;9.226;2023-07-20T10:06:28;2.1;;2.1;2;;;;;;
79466;SPS30;68933;49.726;9.226;2023-07-20T10:08:41;2.1;;2.1;2;;;;;;
79466;SPS30;68933;49.726;9.226;2023-07-20T10:10:53;1.9;;1.9;1.8;;;;;;
79466;SPS30;68933;49.726;9.226;2023-07-20T10:13:06;1.9;;1.9;1.8;;;;;;
79466;SPS30;68933;49.726;9.226;2023-07-20T10:15:20;1.3;;1.3;1.3;;;;;;
79466;SPS30;68933;49.726;9.226;2023-07-20T10:17:32;1.3;;1.3;1.3;;;;;;
79466;SPS30;68933;49.726;9.226;2023-07-20T10:19:47;1.7;;1.7;1.7;;;;;;
79466;SPS30;68933;49.726;9.226;2023-07-20T10:22:00;1.7;;1.7;1.7;;;;;;
79466;SPS30;68933;49.726;9.226;2023-07-20T10:24:11;1.7;;1.7;1.7;;;;;;
79466;SPS30;68933;49.726;9.226;2023-07-20T10:26:25;1.5;;1.5;1.4;;;;;;
79466;SPS30;68933;49.726;9.226;2023-07-20T10:28:38;1.5;;1.5;1.4;;;;;;
79466;SPS30;68933;49.726;9.226;2023-07-20T10:30:50;2.1;;2.1;2;;;;;;
79466;SPS30;68933;49.726;9.226;2023-07-20T10:33:03;2.1;;2.1;2;;;;;;
79466;SPS30;68933;49.726;9.226;2023-07-20T10:35:17;2.1;;2.1;2;;;;;;
79466;SPS30;68933;49.726;9.226;2023-07-20T10:37:46;2;;2;1.9;;;;;;
79466;SPS30;68933;49.726;9.226;2023-07-20T10:39:42;2;;2;1.9;;;;;;
79466;SPS30;68933;49.726;9.226;2023-07-20T10:42:03;2.1;;2.1;2;;;;;;
79466;SPS30;68933;49.726;9.226;2023-07-20T10:44:08;2.1;;2.1;2;;;;;;
79466;SPS30;68933;49.726;9.226;2023-07-20T10:46:58;1.5;;1.5;1.5;;;;;;
79466;SPS30;68933;49.726;9.226;2023-07-20T10:48:34;1.5;;1.5;1.5;;;;;;
79466;SPS30;68933;49.726;9.226;2023-07-20T10:51:20;1.5;;1.5;1.5;;;;;;
79466;SPS30;68933;49.726;9.226;2023-07-20T10:53:04;2.1;;2.1;2;;;;;;
79466;SPS30;68933;49.726;9.226;2023-07-20T10:55:14;2.1;;2.1;2;;;;;;
79466;SPS30;68933;49.726;9.226;2023-07-20T10:57:28;1.5;;1.5;1.5;;;;;;
79466;SPS30;68933;49.726;9.226;2023-07-20T10:59:39;1.5;;1.5;1.5;;;;;;
79466;SPS30;68933;49.726;9.226;2023-07-20T11:01:54;2;;2;1.9;;;;;;
79466;SPS30;68933;49.726;9.226;2023-07-20T11:04:05;2;;2;1.9;;;;;;
79466;SPS30;68933;49.726;9.226;2023-07-20T11:06:34;2;;2;1.9;;;;;;
79466;SPS30;68933;49.726;9.226;2023-07-20T11:08:39;1.6;;1.6;1.5;;;;;;
79466;SPS30;68933;49.726;9.226;2023-07-20T11:10:44;1.6;;1.6;1.5;;;;;;
79466;SPS30;68933;49.726;9.226;2023-07-20T11:13:29;1.6;;1.6;1.5;;;;;;
79466;SPS30;68933;49.726;9.226;2023-07-20T11:15:10;1.6;;1.6;1.5;;;;;;
79466;SPS30;68933;49.726;9.226;2023-07-20T11:17:28;1.6;;1.6;1.5;;;;;;
79466;SPS30;68933;49.726;9.226;2023-07-20T11:19:36;1.6;;1.6;1.5;;;;;;
79466;SPS30;68933;49.726;9.226;2023-07-20T11:21:50;1.6;;1.6;1.5;;;;;;
79466;SPS30;68933;49.726;9.226;2023-07-20T11:24:03;1.2;;1.2;1.1;;;;;;
79466;SPS30;68933;49.726;9.226;2023-07-20T11:26:15;1.2;;1.2;1.1;;;;;;
79466;SPS30;68933;49.726;9.226;2023-07-20T11:28:29;2.1;;2.1;2;;;;;;
79466;SPS30;68933;49.726;9.226;2023-07-20T11:30:41;2.1;;2.1;2;;;;;;
79466;SPS30;68933;49.726;9.226;2023-07-20T11:32:55;1.2;;1.2;1.2;;;;;;
79466;SPS30;68933;49.726;9.226;2023-07-20T11:35:12;1.2;;1.2;1.2;;;;;;
79466;SPS30;68933;49.726;9.226;2023-07-20T11:37:20;2.8;;2.8;2.7;;;;;;
79466;SPS30;68933;49.726;9.226;2023-07-20T11:39:33;2.8;;2.8;2.7;;;;;;
79466;SPS30;68933;49.726;9.226;2023-07-20T11:41:47;2.8;;2.8;2.7;;;;;;
79466;SPS30;68933;49.726;9.226;2023-07-20T11:43:59;1.5;;1.5;1.4;;;;;;
79466;SPS30;68933;49.726;9.226;2023-07-20T11:46:12;1.5;;1.5;1.4;;;;;;
79466;SPS30;68933;49.726;9.226;2023-07-20T11:48:25;1.6;;1.6;1.5;;;;;;
79466;SPS30;68933;49.726;9.226;2023-07-20T11:50:39;1.6;;1.6;1.5;;;;;;
79466;SPS30;68933;49.726;9.226;2023-07-20T11:52:51;1.8;;1.8;1.7;;;;;;
79466;SPS30;68933;49.726;9.226;2023-07-20T11:55:05;1.8;;1.8;1.7;;;;;;
79466;SPS30;68933;49.726;9.226;2023-07-20T11:57:17;2;;2;1.9;;;;;;
79466;SPS30;68933;49.726;9.226;2023-07-20T11:59:31;2;;2;1.9;;;;;;
79466;SPS30;68933;49.726;9.226;2023-07-20T12:01:43;2;;2;1.9;;;;;;
79466;SPS30;68933;49.726;9.226;2023-07-20T12:03:57;1.7;;1.7;1.6;;;;;;
79466;SPS30;68933;49.726;9.226;2023-07-20T12:06:10;1.7;;1.7;1.6;;;;;;
79466;SPS30;68933;49.726;9.226;2023-07-20T12:08:22;3.6;;3.6;3.4;;;;;;
79466;SPS30;68933;49.726;9.226;2023-07-20T12:10:38;3.6;;3.6;3.4;;;;;;
79466;SPS30;68933;49.726;9.226;2023-07-20T12:15:19;1.7;;1.7;1.6;;;;;;
79466;SPS30;68933;49.726;9.226;2023-07-20T12:17:14;2.1;;2.1;2;;;;;;
79466;SPS30;68933;49.726;9.226;2023-07-20T12:19:27;2.1;;2.1;2;;;;;;
79466;SPS30;68933;49.726;9.226;2023-07-20T12:21:41;1.4;;1.4;1.4;;;;;;
79466;SPS30;68933;49.726;9.226;2023-07-20T12:23:55;1.4;;1.4;1.4;;;;;;
79466;SPS30;68933;49.726;9.226;2023-07-20T12:26:07;1.4;;1.4;1.4;;;;;;
79466;SPS30;68933;49.726;9.226;2023-07-20T12:28:20;2.3;;2.3;2.2;;;;;;
79466;SPS30;68933;49.726;9.226;2023-07-20T12:30:32;2.3;;2.3;2.2;;;;;;
79466;SPS30;68933;49.726;9.226;2023-07-20T12:32:45;2;;2;1.9;;;;;;
79466;SPS30;68933;49.726;9.226;2023-07-20T12:34:58;2;;2;1.9;;;;;;
79466;SPS30;68933;49.726;9.226;2023-07-20T12:37:12;1.6;;1.6;1.5;;;;;;
79466;SPS30;68933;49.726;9.226;2023-07-20T12:39:24;1.6;;1.6;1.5;;;;;;
79466;SPS30;68933;49.726;9.226;2023-07-20T12:41:37;1.2;;1.2;1.1;;;;;;
79466;SPS30;68933;49.726;9.226;2023-07-20T12:43:50;1.2;;1.2;1.1;;;;;;